Flight Track Log - Related Links

Times and Time Zones

All times are in EDT time to prevent confusion due to time zone crossing. See the RPA3228 flight status page for this flight to view local times or setup timezone preferences in your user account.

Time Position Orientation Groundspeed Altitude Reporting Facility
EDT Latitude Longitude Course Direction KTS MPH feet Rate Location/Type
Tue 07:41:35 AM 36.1333 -86.7000 74° East 164 189 1,400  Level Nashville TRACON
Tue 07:42:53 AM 36.1833 -86.7500 321° Northwest 222 255 4,500 2,478 Climbing Nashville TRACON
Tue 07:43:53 AM 36.2000 -86.6667 76° East 272 313 7,100 2,535 Climbing Nashville TRACON
Tue 07:44:00 AM 36.2965 -86.1601 50° Northeast  Level Estimated
Tue 07:45:00 AM 36.3391 -86.0303 56° Northeast  Level Estimated
Tue 07:45:15 AM 36.1939 -86.5456 94° East 330 380 10,500  Level Memphis Center
Tue 07:46:00 AM 36.3708 -85.8956 74° East  Level FlightAware Approximate
Tue 07:46:17 AM 36.1944 -86.4350 90° East 323 372 12,600  Level Memphis Center
Tue 07:47:15 AM 36.1950 -86.3192 90° East 330 380 14,900 2,390 Climbing Memphis Center
Tue 07:48:15 AM 36.1969 -86.1906 89° East 336 387 17,300 1,950 Climbing Memphis Center
Tue 07:49:15 AM 36.2053 -86.0667 85° East 343 395 18,800 1,605 Climbing Memphis Center
Tue 07:51:07 AM 36.2908 -85.8661 62° Northeast 376 433 21,900 1,621 Climbing Indianapolis Center
Tue 07:52:09 AM 36.3494 -85.7400 60° Northeast 389 448 23,500 1,463 Climbing Indianapolis Center
Tue 07:53:10 AM 36.4069 -85.6197 59° Northeast 401 461 24,900 1,415 Climbing Indianapolis Center
Tue 07:54:12 AM 36.4661 -85.4967 59° Northeast 412 474 26,400 1,463 Climbing Indianapolis Center
Tue 07:55:13 AM 36.5239 -85.3725 60° Northeast 413 475 27,900 1,366 Climbing Indianapolis Center
Tue 07:56:15 AM 36.5844 -85.2439 60° Northeast 423 487 29,200 1,355 Climbing Indianapolis Center
Tue 07:57:17 AM 36.6381 -85.1064 64° Northeast 437 503 30,700 1,415 Climbing Indianapolis Center
Tue 07:58:18 AM 36.6817 -84.9597 70° East 446 513 32,100 1,561 Climbing Indianapolis Center
Tue 07:59:20 AM 36.7350 -84.7858 69° East 445 512 33,900 1,512 Climbing Indianapolis Center
Tue 08:00:21 AM 36.7775 -84.6428 70° East 440 506 35,200 1,122 Climbing Indianapolis Center
Tue 08:01:23 AM 36.8211 -84.4992 69° East 440 506 36,200 878 Climbing Indianapolis Center
Tue 08:02:24 AM 36.8608 -84.3700 69° East 441 507 37,000 390 Climbing Indianapolis Center
Tue 08:03:26 AM 36.9103 -84.2028 70° East 438 504 37,000  Level Indianapolis Center
Tue 08:04:27 AM 36.9514 -84.0625 70° East 431 496 37,000  Level Indianapolis Center
Tue 08:05:29 AM 36.9947 -83.9231 69° East 427 491 37,000  Level Indianapolis Center
Tue 08:06:31 AM 37.0361 -83.7847 69° East 424 488 37,000  Level Indianapolis Center
Tue 08:07:32 AM 37.0761 -83.6458 70° East 423 487 37,000  Level Indianapolis Center
Tue 08:08:34 AM 37.1169 -83.5075 70° East 422 486 37,000  Level Indianapolis Center
Tue 08:09:35 AM 37.1581 -83.3656 70° East 427 491 37,000  Level Indianapolis Center
Tue 08:10:37 AM 37.1994 -83.2239 70° East 430 495 37,000  Level Indianapolis Center
Tue 08:11:38 AM 37.2411 -83.0825 70° East 429 494 37,000  Level Indianapolis Center
Tue 08:12:40 AM 37.2878 -82.9161 71° East 429 494 37,000  Level Indianapolis Center
Tue 08:13:42 AM 37.3286 -82.7733 70° East 430 495 37,000  Level Indianapolis Center
Tue 08:14:43 AM 37.3683 -82.6297 71° East 432 497 37,000  Level Indianapolis Center
Tue 08:15:45 AM 37.4086 -82.4869 70° East 431 496 37,000  Level Indianapolis Center
Tue 08:16:46 AM 37.4492 -82.3439 70° East 432 497 37,000  Level Indianapolis Center
Tue 08:17:48 AM 37.4875 -82.2022 71° East 428 493 37,000  Level Indianapolis Center
Tue 08:18:49 AM 37.5272 -82.0619 70° East 425 489 37,000  Level Indianapolis Center
Tue 08:19:51 AM 37.5661 -81.9206 71° East 425 489 37,000  Level Indianapolis Center
Tue 08:20:53 AM 37.6047 -81.7794 71° East 426 490 37,000  Level Indianapolis Center
Tue 08:21:54 AM 37.6486 -81.6156 71° East 423 487 37,000  Level Indianapolis Center
Tue 08:22:56 AM 37.6833 -81.4903 71° East 427 491 37,000  Level Indianapolis Center
Tue 08:23:58 AM 37.7261 -81.3286 71° East 418 481 37,000  Level Indianapolis Center
Tue 08:24:59 AM 37.7625 -81.1883 72° East 428 493 37,000  Level Indianapolis Center
Tue 08:26:01 AM 37.8072 -81.0481 68° East 437 503 37,000  Level Indianapolis Center
Tue 08:27:03 AM 37.8594 -80.9008 66° East 453 521 37,000  Level Indianapolis Center
Tue 08:28:04 AM 37.9119 -80.7522 66° East 460 529 37,000  Level Indianapolis Center
Tue 08:29:06 AM 37.9642 -80.6042 66° East 462 532 37,000  Level Indianapolis Center
Tue 08:30:08 AM 38.0214 -80.4428 66° East 458 527 37,000 -242 Level Indianapolis Center
Tue 08:31:10 AM 38.0778 -80.2797 66° East 462 532 36,500 -1,122 Descending Indianapolis Center
Tue 08:32:11 AM 38.1342 -80.1231 65° Northeast 462 532 34,700 -1,707 Descending Indianapolis Center
Tue 08:33:13 AM 38.1850 -79.9786 66° East 461 531 33,000 -1,645 Descending Indianapolis Center
Tue 08:34:15 AM 38.2372 -79.8306 66° East 468 539 31,300 -1,659 Descending Indianapolis Center
Tue 08:35:16 AM 38.2892 -79.6808 66° East 471 542 29,600 -1,805 Descending Indianapolis Center
Tue 08:36:18 AM 38.3508 -79.4983 67° East 476 548 27,600 -1,258 Descending Indianapolis Center
Tue 08:37:20 AM 38.4008 -79.3536 66° East 462 532 27,000 -283 Descending Indianapolis Center
Tue 08:38:25 AM 38.4444 -79.1997 70° East 463 533 27,000  Level Washington Center
Tue 08:39:26 AM 38.4719 -79.0392 78° East 458 527 27,000 -149 Level Washington Center
Tue 08:40:26 AM 38.4947 -78.9022 78° East 451 519 26,700 -1,322 Descending Washington Center
Tue 08:41:24 AM 38.5178 -78.7361 80° East 438 504 24,400 -2,118 Descending Washington Center
Tue 08:42:25 AM 38.5403 -78.5964 78° East 418 481 22,500 -1,438 Descending Washington Center
Tue 08:43:25 AM 38.5625 -78.4567 78° East 407 468 21,500 -1,190 Descending Washington Center
Tue 08:44:26 AM 38.5842 -78.3219 78° East 393 452 20,100 -1,563 Descending Washington Center
Tue 08:45:24 AM 38.6142 -78.1928 73° East 382 440 18,400 -1,462 Descending Washington Center
Tue 08:46:25 AM 38.6522 -78.0747 68° East 368 423 17,200 -1,672 Descending Washington Center
Tue 08:47:26 AM 38.6900 -77.9589 67° East 361 415 15,000 -1,900 Descending Washington Center
Tue 08:48:25 AM 38.7253 -77.8508 67° East 344 396 13,400 -1,450 Descending Washington Center
Tue 08:49:26 AM 38.7728 -77.7672 54° Northeast 309 356 12,100 -1,261 Descending Washington Center
Tue 08:50:24 AM 38.8242 -77.6886 50° Northeast 296 341 10,900 -1,210 Descending Washington Center
Tue 08:51:25 AM 38.8614 -77.5831 66° East 289 333 9,700 -1,156 Descending Washington Center
Tue 08:52:39 AM 38.9000 -77.4667 67° East 279 321 8,300 -1,219 Descending Potomac TRACON
Tue 08:53:33 AM 38.8833 -77.3833 104° East 285 328 7,100 -1,158 Descending Potomac TRACON
Tue 08:54:33 AM 38.8500 -77.3000 117° Southeast 261 300 6,100 -500 Descending Potomac TRACON
Tue 08:55:33 AM 38.8167 -77.2333 123° Southeast 209 241 6,100  Level Potomac TRACON
Tue 08:56:33 AM 38.7833 -77.1667 123° Southeast 213 245 6,100  Level Potomac TRACON
Tue 08:57:33 AM 38.7500 -77.1167 131° Southeast 223 257 6,100  Level Potomac TRACON
Tue 08:58:33 AM 38.6833 -77.1167 180° South 221 254 6,100 -368 Level Potomac TRACON
Tue 08:59:27 AM 38.6333 -77.1000 165° South 216 249 5,400 -1,000 Descending Potomac TRACON
Tue 09:00:33 AM 38.5667 -77.1000 180° South 221 254 4,100 -650 Descending Potomac TRACON
Tue 09:01:27 AM 38.5167 -77.0667 152° Southeast 234 269 4,100 -53 Level Potomac TRACON
Tue 09:02:27 AM 38.5333 -77.0167 67° East 196 226 4,000 -750 Descending Potomac TRACON
Tue 09:03:27 AM 38.5833 -77.0167 360° North 184 212 2,600 -700 Descending Potomac TRACON
Tue 09:04:27 AM 38.6333 -77.0167 360° North 186 214 2,600  Level Potomac TRACON
Tue 09:05:22 AM 38.6833 -77.0167 360° North 187 215 2,600 -157 Level Potomac TRACON
Tue 09:06:22 AM 38.7333 -77.0333 345° North 168 193 2,300 -550 Descending Potomac TRACON
Tue 09:07:22 AM 38.7833 -77.0333 360° North 153 176 1,500 -694 Descending Potomac TRACON
Tue 09:08:23 AM 38.8167 -77.0167 21° North 119 137 900 -590 Descending Potomac TRACON

Login

Don't have an account? Register now (free) for customized features, flight alerts, and more!